sensor_id;sensor_type;location;lat;lon;timestamp;pressure;altitude;pressure_sealevel;temperature;humidity
18749;BME280;9503;53.560;10.246;2022-09-09T00:01:52;100215.19;;;16.45;100.00
18749;BME280;9503;53.560;10.246;2022-09-09T00:04:26;100219.44;;;16.41;100.00
18749;BME280;9503;53.560;10.246;2022-09-09T00:06:59;100218.69;;;16.45;100.00
18749;BME280;9503;53.560;10.246;2022-09-09T00:09:30;100212.56;;;16.43;100.00
18749;BME280;9503;53.560;10.246;2022-09-09T00:12:01;100221.16;;;16.39;100.00
18749;BME280;9503;53.560;10.246;2022-09-09T00:14:35;100205.53;;;16.35;100.00
18749;BME280;9503;53.560;10.246;2022-09-09T00:17:08;100206.50;;;16.40;100.00
18749;BME280;9503;53.560;10.246;2022-09-09T00:19:41;100213.34;;;16.38;100.00
18749;BME280;9503;53.560;10.246;2022-09-09T00:22:15;100218.59;;;16.41;100.00
18749;BME280;9503;53.560;10.246;2022-09-09T00:24:46;100217.63;;;16.36;100.00
18749;BME280;9503;53.560;10.246;2022-09-09T00:27:22;100219.34;;;16.35;100.00
18749;BME280;9503;53.560;10.246;2022-09-09T00:29:53;100211.28;;;16.17;100.00
18749;BME280;9503;53.560;10.246;2022-09-09T00:32:21;100220.06;;;16.25;100.00
18749;BME280;9503;53.560;10.246;2022-09-09T00:34:50;100216.63;;;16.27;100.00
18749;BME280;9503;53.560;10.246;2022-09-09T00:37:19;100214.03;;;16.26;100.00
18749;BME280;9503;53.560;10.246;2022-09-09T00:39:49;100214.84;;;16.23;100.00
18749;BME280;9503;53.560;10.246;2022-09-09T00:42:20;100220.69;;;16.13;100.00
18749;BME280;9503;53.560;10.246;2022-09-09T00:44:58;100223.31;;;16.15;100.00
18749;BME280;9503;53.560;10.246;2022-09-09T00:47:39;100213.00;;;16.16;100.00
18749;BME280;9503;53.560;10.246;2022-09-09T00:50:15;100219.09;;;16.20;100.00
18749;BME280;9503;53.560;10.246;2022-09-09T00:52:48;100219.94;;;16.19;100.00
18749;BME280;9503;53.560;10.246;2022-09-09T00:55:27;100225.09;;;16.17;100.00
18749;BME280;9503;53.560;10.246;2022-09-09T00:57:58;100213.94;;;16.21;100.00
18749;BME280;9503;53.560;10.246;2022-09-09T01:00:27;100216.53;;;16.23;100.00
18749;BME280;9503;53.560;10.246;2022-09-09T01:03:06;100214.78;;;16.20;100.00
18749;BME280;9503;53.560;10.246;2022-09-09T01:05:45;100214.91;;;16.26;100.00
18749;BME280;9503;53.560;10.246;2022-09-09T01:08:22;100209.75;;;16.29;100.00
18749;BME280;9503;53.560;10.246;2022-09-09T01:10:56;100209.63;;;16.20;100.00
18749;BME280;9503;53.560;10.246;2022-09-09T01:13:26;100202.78;;;16.24;100.00
18749;BME280;9503;53.560;10.246;2022-09-09T01:15:56;100205.50;;;16.32;100.00
18749;BME280;9503;53.560;10.246;2022-09-09T01:18:27;100199.41;;;16.29;100.00
18749;BME280;9503;53.560;10.246;2022-09-09T01:20:59;100192.59;;;16.33;100.00
18749;BME280;9503;53.560;10.246;2022-09-09T01:23:42;100202.13;;;16.37;100.00
18749;BME280;9503;53.560;10.246;2022-09-09T01:26:19;100202.13;;;16.37;100.00
18749;BME280;9503;53.560;10.246;2022-09-09T01:28:49;100209.88;;;16.37;100.00
18749;BME280;9503;53.560;10.246;2022-09-09T01:31:20;100208.97;;;16.32;100.00
18749;BME280;9503;53.560;10.246;2022-09-09T01:33:48;100208.16;;;16.36;100.00
18749;BME280;9503;53.560;10.246;2022-09-09T01:36:20;100202.09;;;16.34;100.00
18749;BME280;9503;53.560;10.246;2022-09-09T01:38:48;100205.50;;;16.32;100.00
18749;BME280;9503;53.560;10.246;2022-09-09T01:41:14;100205.38;;;16.24;100.00
18749;BME280;9503;53.560;10.246;2022-09-09T01:43:42;100201.19;;;16.32;100.00
18749;BME280;9503;53.560;10.246;2022-09-09T01:46:10;100200.38;;;16.36;100.00
18749;BME280;9503;53.560;10.246;2022-09-09T01:48:39;100190.88;;;16.34;100.00
18749;BME280;9503;53.560;10.246;2022-09-09T01:51:07;100197.66;;;16.27;100.00
18749;BME280;9503;53.560;10.246;2022-09-09T01:53:34;100201.00;;;16.21;100.00
18749;BME280;9503;53.560;10.246;2022-09-09T01:56:11;100192.19;;;16.09;100.00
18749;BME280;9503;53.560;10.246;2022-09-09T01:58:52;100191.50;;;16.20;100.00
18749;BME280;9503;53.560;10.246;2022-09-09T02:01:28;100188.03;;;16.17;100.00
18749;BME280;9503;53.560;10.246;2022-09-09T02:04:03;100192.34;;;16.19;100.00
18749;BME280;9503;53.560;10.246;2022-09-09T02:06:35;100194.84;;;16.13;100.00
18749;BME280;9503;53.560;10.246;2022-09-09T02:09:04;100193.22;;;16.20;100.00
18749;BME280;9503;53.560;10.246;2022-09-09T02:11:32;100204.28;;;16.10;100.00
18749;BME280;9503;53.560;10.246;2022-09-09T02:14:04;100203.34;;;16.06;100.00
18749;BME280;9503;53.560;10.246;2022-09-09T02:16:36;100197.38;;;16.09;100.00
18749;BME280;9503;53.560;10.246;2022-09-09T02:19:08;100197.38;;;16.09;100.00
18749;BME280;9503;53.560;10.246;2022-09-09T02:21:40;100203.47;;;16.14;100.00
18749;BME280;9503;53.560;10.246;2022-09-09T02:24:08;100207.84;;;16.16;100.00
18749;BME280;9503;53.560;10.246;2022-09-09T02:26:38;100193.09;;;16.12;100.00
18749;BME280;9503;53.560;10.246;2022-09-09T02:29:09;100199.00;;;16.05;100.00
18749;BME280;9503;53.560;10.246;2022-09-09T02:31:39;100199.22;;;16.16;100.00
18749;BME280;9503;53.560;10.246;2022-09-09T02:34:08;100196.63;;;16.16;100.00
18749;BME280;9503;53.560;10.246;2022-09-09T02:36:36;100195.53;;;16.03;100.00
18749;BME280;9503;53.560;10.246;2022-09-09T02:39:05;100197.28;;;16.06;100.00
18749;BME280;9503;53.560;10.246;2022-09-09T02:41:35;100198.00;;;15.95;100.00
18749;BME280;9503;53.560;10.246;2022-09-09T02:44:08;100199.84;;;16.02;100.00
18749;BME280;9503;53.560;10.246;2022-09-09T02:46:46;100200.72;;;16.03;100.00
18749;BME280;9503;53.560;10.246;2022-09-09T02:49:21;100201.59;;;16.05;100.00
18749;BME280;9503;53.560;10.246;2022-09-09T02:51:54;100198.19;;;16.08;100.00
18749;BME280;9503;53.560;10.246;2022-09-09T02:54:26;100190.44;;;16.08;100.00
18749;BME280;9503;53.560;10.246;2022-09-09T02:57:01;100184.38;;;16.07;100.00
18749;BME280;9503;53.560;10.246;2022-09-09T02:59:31;100191.25;;;16.05;100.00
18749;BME280;9503;53.560;10.246;2022-09-09T03:01:57;100188.63;;;16.02;100.00
18749;BME280;9503;53.560;10.246;2022-09-09T03:04:24;100191.91;;;15.93;100.00
18749;BME280;9503;53.560;10.246;2022-09-09T03:06:50;100198.72;;;15.88;100.00
18749;BME280;9503;53.560;10.246;2022-09-09T03:09:17;100197.75;;;15.83;100.00
18749;BME280;9503;53.560;10.246;2022-09-09T03:11:43;100196.88;;;15.83;100.00
18749;BME280;9503;53.560;10.246;2022-09-09T03:14:10;100202.94;;;15.83;100.00
18749;BME280;9503;53.560;10.246;2022-09-09T03:16:38;100202.09;;;15.86;100.00
18749;BME280;9503;53.560;10.246;2022-09-09T03:19:05;100205.53;;;15.85;100.00
18749;BME280;9503;53.560;10.246;2022-09-09T03:21:31;100206.34;;;15.81;100.00
18749;BME280;9503;53.560;10.246;2022-09-09T03:23:58;100200.34;;;15.83;100.00
18749;BME280;9503;53.560;10.246;2022-09-09T03:26:24;100204.53;;;15.78;100.00
18749;BME280;9503;53.560;10.246;2022-09-09T03:28:51;100198.50;;;15.76;100.00
18749;BME280;9503;53.560;10.246;2022-09-09T03:31:18;100200.31;;;15.80;100.00
18749;BME280;9503;53.560;10.246;2022-09-09T03:33:46;100204.53;;;15.78;100.00
18749;BME280;9503;53.560;10.246;2022-09-09T03:36:13;100206.97;;;15.69;100.00
18749;BME280;9503;53.560;10.246;2022-09-09T03:38:40;100202.75;;;15.72;100.00
18749;BME280;9503;53.560;10.246;2022-09-09T03:41:06;100200.09;;;15.71;100.00
18749;BME280;9503;53.560;10.246;2022-09-09T03:43:33;100206.91;;;15.64;100.00
18749;BME280;9503;53.560;10.246;2022-09-09T03:46:00;100196.59;;;15.67;100.00
18749;BME280;9503;53.560;10.246;2022-09-09T03:48:27;100197.59;;;15.74;100.00
18749;BME280;9503;53.560;10.246;2022-09-09T03:50:55;100202.44;;;15.59;100.00
18749;BME280;9503;53.560;10.246;2022-09-09T03:53:23;100206.00;;;15.64;100.00
18749;BME280;9503;53.560;10.246;2022-09-09T03:55:53;100207.69;;;15.62;100.00
18749;BME280;9503;53.560;10.246;2022-09-09T03:58:22;100205.13;;;15.63;100.00
18749;BME280;9503;53.560;10.246;2022-09-09T04:00:55;100214.59;;;15.63;100.00
18749;BME280;9503;53.560;10.246;2022-09-09T04:03:23;100215.53;;;15.65;100.00
18749;BME280;9503;53.560;10.246;2022-09-09T04:05:51;100217.94;;;15.59;100.00
18749;BME280;9503;53.560;10.246;2022-09-09T04:08:20;100212.78;;;15.59;100.00
18749;BME280;9503;53.560;10.246;2022-09-09T04:10:48;100209.31;;;15.58;100.00
18749;BME280;9503;53.560;10.246;2022-09-09T04:13:18;100207.53;;;15.56;100.00
18749;BME280;9503;53.560;10.246;2022-09-09T04:15:50;100212.63;;;15.51;100.00
18749;BME280;9503;53.560;10.246;2022-09-09T04:18:18;100217.88;;;15.56;100.00
18749;BME280;9503;53.560;10.246;2022-09-09T04:20:47;100215.25;;;15.53;100.00
18749;BME280;9503;53.560;10.246;2022-09-09T04:23:14;100220.28;;;15.46;100.00
18749;BME280;9503;53.560;10.246;2022-09-09T04:25:46;100227.91;;;15.40;100.00
18749;BME280;9503;53.560;10.246;2022-09-09T04:28:14;100217.56;;;15.40;100.00
18749;BME280;9503;53.560;10.246;2022-09-09T04:30:42;100218.31;;;15.35;100.00
18749;BME280;9503;53.560;10.246;2022-09-09T04:33:09;100223.41;;;15.30;100.00
18749;BME280;9503;53.560;10.246;2022-09-09T04:35:37;100225.00;;;15.25;100.00
18749;BME280;9503;53.560;10.246;2022-09-09T04:38:05;100225.88;;;15.26;100.00
18749;BME280;9503;53.560;10.246;2022-09-09T04:40:35;100232.84;;;15.28;100.00
18749;BME280;9503;53.560;10.246;2022-09-09T04:43:10;100226.00;;;15.32;100.00
18749;BME280;9503;53.560;10.246;2022-09-09T04:45:37;100231.28;;;15.36;100.00
18749;BME280;9503;53.560;10.246;2022-09-09T04:48:07;100231.41;;;15.42;100.00
18749;BME280;9503;53.560;10.246;2022-09-09T04:50:35;100234.91;;;15.46;100.00
18749;BME280;9503;53.560;10.246;2022-09-09T04:53:06;100233.31;;;15.51;100.00
18749;BME280;9503;53.560;10.246;2022-09-09T04:55:34;100238.63;;;15.59;100.00
18749;BME280;9503;53.560;10.246;2022-09-09T04:58:03;100247.31;;;15.62;100.00
18749;BME280;9503;53.560;10.246;2022-09-09T05:00:31;100240.53;;;15.66;100.00
18749;BME280;9503;53.560;10.246;2022-09-09T05:03:02;100238.84;;;15.69;100.00
18749;BME280;9503;53.560;10.246;2022-09-09T05:05:32;100235.50;;;15.73;100.00
18749;BME280;9503;53.560;10.246;2022-09-09T05:08:01;100243.31;;;15.77;100.00
18749;BME280;9503;53.560;10.246;2022-09-09T05:10:29;100250.03;;;15.68;100.00
18749;BME280;9503;53.560;10.246;2022-09-09T05:12:56;100245.75;;;15.70;100.00
18749;BME280;9503;53.560;10.246;2022-09-09T05:15:22;100240.53;;;15.66;100.00
18749;BME280;9503;53.560;10.246;2022-09-09T05:17:56;100237.00;;;15.64;100.00
18749;BME280;9503;53.560;10.246;2022-09-09T05:20:23;100240.28;;;15.57;100.00
18749;BME280;9503;53.560;10.246;2022-09-09T05:22:52;100246.34;;;15.57;100.00
18749;BME280;9503;53.560;10.246;2022-09-09T05:25:19;100246.28;;;15.56;100.00
18749;BME280;9503;53.560;10.246;2022-09-09T05:27:47;100244.56;;;15.55;100.00
18749;BME280;9503;53.560;10.246;2022-09-09T05:30:14;100257.47;;;15.55;100.00
18749;BME280;9503;53.560;10.246;2022-09-09T05:32:42;100251.41;;;15.53;100.00
18749;BME280;9503;53.560;10.246;2022-09-09T05:35:10;100252.38;;;15.58;100.00
18749;BME280;9503;53.560;10.246;2022-09-09T05:37:36;100256.00;;;15.64;100.00
18749;BME280;9503;53.560;10.246;2022-09-09T05:40:03;100252.66;;;15.71;100.00
18749;BME280;9503;53.560;10.246;2022-09-09T05:42:30;100258.94;;;15.84;100.00
18749;BME280;9503;53.560;10.246;2022-09-09T05:44:57;100252.22;;;15.92;100.00
18749;BME280;9503;53.560;10.246;2022-09-09T05:47:24;100264.34;;;15.95;100.00
18749;BME280;9503;53.560;10.246;2022-09-09T05:49:53;100260.94;;;15.97;100.00
18749;BME280;9503;53.560;10.246;2022-09-09T05:52:21;100260.06;;;15.97;100.00
18749;BME280;9503;53.560;10.246;2022-09-09T05:54:47;100269.56;;;15.98;100.00
18749;BME280;9503;53.560;10.246;2022-09-09T05:57:14;100269.66;;;16.02;100.00
18749;BME280;9503;53.560;10.246;2022-09-09T05:59:41;100267.13;;;16.07;100.00
18749;BME280;9503;53.560;10.246;2022-09-09T06:02:08;100268.94;;;16.11;100.00
18749;BME280;9503;53.560;10.246;2022-09-09T06:04:35;100278.41;;;16.09;100.00
18749;BME280;9503;53.560;10.246;2022-09-09T06:07:01;100276.03;;;16.21;100.00
18749;BME280;9503;53.560;10.246;2022-09-09T06:09:29;100273.63;;;16.30;100.00
18749;BME280;9503;53.560;10.246;2022-09-09T06:11:56;100284.16;;;16.41;100.00
18749;BME280;9503;53.560;10.246;2022-09-09T06:14:22;100280.59;;;16.36;100.00
18749;BME280;9503;53.560;10.246;2022-09-09T06:16:50;100290.19;;;16.42;100.00
18749;BME280;9503;53.560;10.246;2022-09-09T06:19:17;100293.00;;;16.55;100.00
18749;BME280;9503;53.560;10.246;2022-09-09T06:21:45;100294.97;;;16.69;100.00
18749;BME280;9503;53.560;10.246;2022-09-09T06:24:13;100288.91;;;16.68;100.00
18749;BME280;9503;53.560;10.246;2022-09-09T06:26:43;100290.81;;;16.77;100.00
18749;BME280;9503;53.560;10.246;2022-09-09T06:29:10;100297.31;;;17.06;100.00
18749;BME280;9503;53.560;10.246;2022-09-09T06:31:37;100292.13;;;17.05;100.00
18749;BME280;9503;53.560;10.246;2022-09-09T06:34:05;100299.44;;;17.33;100.00
18749;BME280;9503;53.560;10.246;2022-09-09T06:36:34;100299.25;;;17.20;100.00
18749;BME280;9503;53.560;10.246;2022-09-09T06:39:02;100299.34;;;17.29;100.00
18749;BME280;9503;53.560;10.246;2022-09-09T06:41:30;100294.94;;;17.22;100.00
18749;BME280;9503;53.560;10.246;2022-09-09T06:43:59;100301.31;;;16.88;100.00
18749;BME280;9503;53.560;10.246;2022-09-09T06:46:27;100296.50;;;17.10;100.00
18749;BME280;9503;53.560;10.246;2022-09-09T06:48:56;100301.72;;;17.13;100.00
18749;BME280;9503;53.560;10.246;2022-09-09T06:51:26;100308.88;;;17.31;100.00
18749;BME280;9503;53.560;10.246;2022-09-09T06:53:54;100299.47;;;17.36;100.00
18749;BME280;9503;53.560;10.246;2022-09-09T06:56:23;100296.88;;;16.79;100.00
18749;BME280;9503;53.560;10.246;2022-09-09T06:58:51;100297.19;;;16.97;100.00
18749;BME280;9503;53.560;10.246;2022-09-09T07:01:22;100293.97;;;17.13;100.00
18749;BME280;9503;53.560;10.246;2022-09-09T07:03:50;100290.50;;;17.13;100.00
18749;BME280;9503;53.560;10.246;2022-09-09T07:06:19;100292.44;;;17.29;100.00
18749;BME280;9503;53.560;10.246;2022-09-09T07:08:51;100294.09;;;17.24;100.00
18749;BME280;9503;53.560;10.246;2022-09-09T07:11:18;100294.25;;;17.33;100.00
18749;BME280;9503;53.560;10.246;2022-09-09T07:13:46;100297.72;;;17.35;100.00
18749;BME280;9503;53.560;10.246;2022-09-09T07:16:16;100294.25;;;17.35;100.00
18749;BME280;9503;53.560;10.246;2022-09-09T07:18:44;100300.22;;;17.28;100.00
18749;BME280;9503;53.560;10.246;2022-09-09T07:21:12;100299.56;;;17.44;100.00
18749;BME280;9503;53.560;10.246;2022-09-09T07:23:40;100298.81;;;17.54;100.00
18749;BME280;9503;53.560;10.246;2022-09-09T07:26:08;100308.50;;;17.67;100.00
18749;BME280;9503;53.560;10.246;2022-09-09T07:28:35;100305.16;;;17.75;100.00
18749;BME280;9503;53.560;10.246;2022-09-09T07:31:02;100301.31;;;17.47;100.00
18749;BME280;9503;53.560;10.246;2022-09-09T07:33:30;100308.28;;;18.20;100.00
18749;BME280;9503;53.560;10.246;2022-09-09T07:36:04;100304.28;;;18.56;98.75
18749;BME280;9503;53.560;10.246;2022-09-09T07:38:33;100311.72;;;18.19;100.00
18749;BME280;9503;53.560;10.246;2022-09-09T07:41:04;100309.75;;;18.87;98.43
18749;BME280;9503;53.560;10.246;2022-09-09T07:43:32;100317.75;;;19.11;96.24
18749;BME280;9503;53.560;10.246;2022-09-09T07:45:59;100315.59;;;18.64;94.12
18749;BME280;9503;53.560;10.246;2022-09-09T07:48:26;100321.25;;;18.19;98.95
18749;BME280;9503;53.560;10.246;2022-09-09T07:51:04;100319.34;;;18.06;98.33
18749;BME280;9503;53.560;10.246;2022-09-09T07:53:32;100316.69;;;18.85;98.69
18749;BME280;9503;53.560;10.246;2022-09-09T07:56:02;100332.34;;;18.94;99.37
18749;BME280;9503;53.560;10.246;2022-09-09T07:58:29;100334.41;;;19.41;94.61
18749;BME280;9503;53.560;10.246;2022-09-09T08:00:56;100340.72;;;19.85;93.66
18749;BME280;9503;53.560;10.246;2022-09-09T08:03:23;100337.16;;;19.62;95.22
18749;BME280;9503;53.560;10.246;2022-09-09T08:05:49;100344.19;;;19.84;94.16
18749;BME280;9503;53.560;10.246;2022-09-09T08:08:18;100338.78;;;19.49;94.28
18749;BME280;9503;53.560;10.246;2022-09-09T08:10:44;100332.34;;;18.94;95.94
18749;BME280;9503;53.560;10.246;2022-09-09T08:13:11;100336.53;;;18.75;97.33
18749;BME280;9503;53.560;10.246;2022-09-09T08:15:38;100335.78;;;18.91;96.88
18749;BME280;9503;53.560;10.246;2022-09-09T08:18:04;100339.56;;;18.36;98.68
18749;BME280;9503;53.560;10.246;2022-09-09T08:20:31;100343.09;;;18.39;100.00
18749;BME280;9503;53.560;10.246;2022-09-09T08:22:57;100337.97;;;18.50;98.21
18749;BME280;9503;53.560;10.246;2022-09-09T08:25:25;100338.28;;;18.77;96.29
18749;BME280;9503;53.560;10.246;2022-09-09T08:27:52;100344.44;;;18.92;98.30
18749;BME280;9503;53.560;10.246;2022-09-09T08:30:19;100348.09;;;19.17;97.34
18749;BME280;9503;53.560;10.246;2022-09-09T08:32:46;100345.31;;;18.91;99.38
18749;BME280;9503;53.560;10.246;2022-09-09T08:35:12;100346.66;;;19.57;98.42
18749;BME280;9503;53.560;10.246;2022-09-09T08:37:39;100350.22;;;19.76;94.13
18749;BME280;9503;53.560;10.246;2022-09-09T08:40:09;100356.44;;;20.18;92.05
18749;BME280;9503;53.560;10.246;2022-09-09T08:42:48;100364.28;;;20.24;92.08
18749;BME280;9503;53.560;10.246;2022-09-09T08:45:25;100358.94;;;19.84;91.08
18749;BME280;9503;53.560;10.246;2022-09-09T08:48:04;100361.44;;;19.67;93.02
18749;BME280;9503;53.560;10.246;2022-09-09T08:50:36;100360.66;;;19.77;90.23
18749;BME280;9503;53.560;10.246;2022-09-09T08:53:10;100362.44;;;19.91;90.53
18749;BME280;9503;53.560;10.246;2022-09-09T08:55:41;100361.59;;;20.02;90.68
18749;BME280;9503;53.560;10.246;2022-09-09T08:58:13;100352.91;;;19.97;89.84
18749;BME280;9503;53.560;10.246;2022-09-09T09:00:47;100361.50;;;19.78;90.81
18749;BME280;9503;53.560;10.246;2022-09-09T09:03:25;100371.00;;;19.73;90.23
18749;BME280;9503;53.560;10.246;2022-09-09T09:06:01;100361.63;;;20.10;90.02
18749;BME280;9503;53.560;10.246;2022-09-09T09:08:36;100354.50;;;19.63;90.70
18749;BME280;9503;53.560;10.246;2022-09-09T09:11:06;100360.75;;;20.02;89.25
18749;BME280;9503;53.560;10.246;2022-09-09T09:13:40;100365.16;;;20.29;84.88
18749;BME280;9503;53.560;10.246;2022-09-09T09:16:15;100373.84;;;20.20;86.63
18749;BME280;9503;53.560;10.246;2022-09-09T09:18:44;100373.94;;;20.57;87.17
18749;BME280;9503;53.560;10.246;2022-09-09T09:21:13;100383.50;;;20.85;83.40
18749;BME280;9503;53.560;10.246;2022-09-09T09:23:50;100380.03;;;21.47;82.59
18749;BME280;9503;53.560;10.246;2022-09-09T09:26:21;100379.13;;;21.67;80.62
18749;BME280;9503;53.560;10.246;2022-09-09T09:28:55;100377.44;;;21.44;80.60
18749;BME280;9503;53.560;10.246;2022-09-09T09:31:22;100380.06;;;21.03;81.13
18749;BME280;9503;53.560;10.246;2022-09-09T09:33:53;100367.88;;;21.36;80.63
18749;BME280;9503;53.560;10.246;2022-09-09T09:36:20;100373.09;;;20.96;81.48
18749;BME280;9503;53.560;10.246;2022-09-09T09:38:55;100379.91;;;20.33;83.14
18749;BME280;9503;53.560;10.246;2022-09-09T09:41:33;100376.59;;;21.16;81.47
18749;BME280;9503;53.560;10.246;2022-09-09T09:44:02;100367.88;;;21.36;80.58
18749;BME280;9503;53.560;10.246;2022-09-09T09:46:29;100373.91;;;21.70;78.13
18749;BME280;9503;53.560;10.246;2022-09-09T09:48:57;100371.28;;;21.70;78.72
18749;BME280;9503;53.560;10.246;2022-09-09T09:51:25;100370.03;;;22.53;76.74
18749;BME280;9503;53.560;10.246;2022-09-09T09:53:53;100366.50;;;22.60;75.58
18749;BME280;9503;53.560;10.246;2022-09-09T09:56:26;100369.91;;;22.75;73.70
18749;BME280;9503;53.560;10.246;2022-09-09T09:58:54;100368.97;;;22.82;76.06
18749;BME280;9503;53.560;10.246;2022-09-09T10:01:24;100373.28;;;22.91;75.15
18749;BME280;9503;53.560;10.246;2022-09-09T10:03:53;100380.63;;;23.47;74.85
18749;BME280;9503;53.560;10.246;2022-09-09T10:06:29;100377.75;;;23.75;72.20
18749;BME280;9503;53.560;10.246;2022-09-09T10:08:56;100386.13;;;24.04;71.08
18749;BME280;9503;53.560;10.246;2022-09-09T10:11:37;100379.25;;;23.95;71.66
18749;BME280;9503;53.560;10.246;2022-09-09T10:14:15;100376.00;;;23.72;71.87
18749;BME280;9503;53.560;10.246;2022-09-09T10:16:56;100385.66;;;23.68;71.17
18749;BME280;9503;53.560;10.246;2022-09-09T10:19:30;100382.34;;;23.48;72.34
18749;BME280;9503;53.560;10.246;2022-09-09T10:22:05;100385.72;;;23.62;72.71
18749;BME280;9503;53.560;10.246;2022-09-09T10:25:00;100378.75;;;23.63;72.66
18749;BME280;9503;53.560;10.246;2022-09-09T10:27:37;100377.59;;;23.87;72.08
18749;BME280;9503;53.560;10.246;2022-09-09T10:30:15;100381.38;;;24.31;72.11
18749;BME280;9503;53.560;10.246;2022-09-09T10:32:51;100372.47;;;24.47;71.14
18749;BME280;9503;53.560;10.246;2022-09-09T10:35:31;100368.00;;;24.55;70.72
18749;BME280;9503;53.560;10.246;2022-09-09T10:38:14;100375.19;;;24.41;70.75
18749;BME280;9503;53.560;10.246;2022-09-09T10:41:00;100375.63;;;24.70;69.40
18749;BME280;9503;53.560;10.246;2022-09-09T10:43:41;100367.25;;;24.47;69.32
18749;BME280;9503;53.560;10.246;2022-09-09T10:46:17;100367.56;;;24.83;69.66
18749;BME280;9503;53.560;10.246;2022-09-09T10:49:03;100365.88;;;24.78;68.52
18749;BME280;9503;53.560;10.246;2022-09-09T10:51:40;100362.28;;;24.22;69.44
18749;BME280;9503;53.560;10.246;2022-09-09T10:54:21;100360.16;;;23.00;72.67
18749;BME280;9503;53.560;10.246;2022-09-09T10:56:54;100367.06;;;23.05;73.90
18749;BME280;9503;53.560;10.246;2022-09-09T10:59:24;100365.09;;;23.30;73.99
18749;BME280;9503;53.560;10.246;2022-09-09T11:01:55;100360.63;;;23.41;73.48
18749;BME280;9503;53.560;10.246;2022-09-09T11:04:26;100361.44;;;23.47;72.75
18749;BME280;9503;53.560;10.246;2022-09-09T11:06:58;100357.34;;;23.23;73.08
18749;BME280;9503;53.560;10.246;2022-09-09T11:09:32;100358.91;;;23.39;73.88
18749;BME280;9503;53.560;10.246;2022-09-09T11:12:02;100357.06;;;23.47;72.68
18749;BME280;9503;53.560;10.246;2022-09-09T11:14:31;100351.69;;;23.62;71.95
18749;BME280;9503;53.560;10.246;2022-09-09T11:17:03;100358.47;;;23.79;72.49
18749;BME280;9503;53.560;10.246;2022-09-09T11:19:34;100348.78;;;23.87;72.60
18749;BME280;9503;53.560;10.246;2022-09-09T11:22:03;100354.03;;;23.85;72.14
18749;BME280;9503;53.560;10.246;2022-09-09T11:24:36;100347.59;;;23.37;72.82
18749;BME280;9503;53.560;10.246;2022-09-09T11:27:09;100352.69;;;23.48;73.83
18749;BME280;9503;53.560;10.246;2022-09-09T11:29:56;100359.31;;;23.84;72.13
18749;BME280;9503;53.560;10.246;2022-09-09T11:32:51;100360.63;;;23.43;72.06
18749;BME280;9503;53.560;10.246;2022-09-09T11:35:30;100364.69;;;23.70;72.52
18749;BME280;9503;53.560;10.246;2022-09-09T11:38:14;100369.53;;;24.05;72.06
18749;BME280;9503;53.560;10.246;2022-09-09T11:40:43;100370.41;;;24.69;70.27
18749;BME280;9503;53.560;10.246;2022-09-09T11:43:12;100373.63;;;25.39;67.52
18749;BME280;9503;53.560;10.246;2022-09-09T11:45:41;100376.78;;;26.02;65.20
18749;BME280;9503;53.560;10.246;2022-09-09T11:48:22;100380.03;;;25.69;65.40
18749;BME280;9503;53.560;10.246;2022-09-09T11:51:00;100372.44;;;26.00;64.83
18749;BME280;9503;53.560;10.246;2022-09-09T11:53:28;100368.78;;;25.62;64.91
18749;BME280;9503;53.560;10.246;2022-09-09T11:56:06;100370.63;;;25.58;65.87
18749;BME280;9503;53.560;10.246;2022-09-09T11:58:38;100373.03;;;25.23;67.45
18749;BME280;9503;53.560;10.246;2022-09-09T12:01:24;100367.63;;;25.30;67.50
18749;BME280;9503;53.560;10.246;2022-09-09T12:04:00;100376.94;;;24.96;68.72
18749;BME280;9503;53.560;10.246;2022-09-09T12:06:33;100376.94;;;24.97;68.73
18749;BME280;9503;53.560;10.246;2022-09-09T12:09:13;100379.53;;;24.42;70.53
18749;BME280;9503;53.560;10.246;2022-09-09T12:11:42;100371.38;;;23.94;73.13
18749;BME280;9503;53.560;10.246;2022-09-09T12:14:19;100377.75;;;23.71;73.45
18749;BME280;9503;53.560;10.246;2022-09-09T12:16:46;100371.41;;;23.09;76.14
18749;BME280;9503;53.560;10.246;2022-09-09T12:19:15;100373.81;;;21.91;82.26
18749;BME280;9503;53.560;10.246;2022-09-09T12:21:50;100373.94;;;21.53;87.09
18749;BME280;9503;53.560;10.246;2022-09-09T12:24:23;100376.56;;;21.22;89.52
18749;BME280;9503;53.560;10.246;2022-09-09T12:26:58;100373.09;;;20.88;91.52
18749;BME280;9503;53.560;10.246;2022-09-09T12:29:31;100374.81;;;20.76;92.89
18749;BME280;9503;53.560;10.246;2022-09-09T12:32:06;100373.09;;;20.65;94.28
18749;BME280;9503;53.560;10.246;2022-09-09T12:34:38;100368.66;;;20.29;97.36
18749;BME280;9503;53.560;10.246;2022-09-09T12:37:16;100369.50;;;20.24;98.52
18749;BME280;9503;53.560;10.246;2022-09-09T12:39:47;100376.53;;;20.51;99.45
18749;BME280;9503;53.560;10.246;2022-09-09T12:42:17;100376.56;;;20.70;99.03
18749;BME280;9503;53.560;10.246;2022-09-09T12:44:54;100381.78;;;20.84;98.96
18749;BME280;9503;53.560;10.246;2022-09-09T12:47:24;100372.25;;;20.86;99.08
18749;BME280;9503;53.560;10.246;2022-09-09T12:49:51;100362.69;;;21.04;100.00
18749;BME280;9503;53.560;10.246;2022-09-09T12:52:24;100357.44;;;21.27;98.63
18749;BME280;9503;53.560;10.246;2022-09-09T12:54:52;100359.97;;;21.66;98.29
18749;BME280;9503;53.560;10.246;2022-09-09T12:57:19;100365.09;;;21.98;96.41
18749;BME280;9503;53.560;10.246;2022-09-09T12:59:49;100364.97;;;22.33;93.00
18749;BME280;9503;53.560;10.246;2022-09-09T13:02:18;100370.75;;;22.78;90.78